createdAt,value
2017-10-30T00:01:26.053Z,2.67
2017-10-30T00:03:54.364Z,3.40
2017-10-30T00:06:22.662Z,3.80
2017-10-30T00:08:50.931Z,4.20
2017-10-30T00:11:19.216Z,3.50
2017-10-30T00:13:47.560Z,3.50
2017-10-30T00:16:15.825Z,4.70
2017-10-30T00:18:44.081Z,3.73
2017-10-30T00:21:12.362Z,3.80
2017-10-30T00:23:40.608Z,3.00
2017-10-30T00:26:09.641Z,3.73
2017-10-30T00:28:37.906Z,3.60
2017-10-30T00:31:06.197Z,3.73
2017-10-30T00:33:34.457Z,4.80
2017-10-30T00:36:02.719Z,3.50
2017-10-30T00:38:31.774Z,3.90
2017-10-30T00:41:00.098Z,4.77
2017-10-30T00:43:28.361Z,4.27
2017-10-30T00:45:57.383Z,3.93
2017-10-30T00:48:25.640Z,3.77
2017-10-30T00:50:53.918Z,3.43
2017-10-30T00:53:22.202Z,2.83
2017-10-30T00:55:50.460Z,3.87
2017-10-30T00:58:19.493Z,3.50
2017-10-30T01:00:47.786Z,4.00
2017-10-30T01:03:16.052Z,3.63
2017-10-30T01:05:44.330Z,3.90
2017-10-30T01:08:12.603Z,3.27
2017-10-30T01:10:40.879Z,4.20
2017-10-30T01:13:09.158Z,4.50
2017-10-30T01:15:37.412Z,3.80
2017-10-30T01:18:05.694Z,4.67
2017-10-30T01:20:33.969Z,5.33
2017-10-30T01:23:02.244Z,4.33
2017-10-30T01:25:30.517Z,5.57
2017-10-30T01:27:58.775Z,5.33
2017-10-30T01:30:27.043Z,5.40
2017-10-30T01:32:55.315Z,4.80
2017-10-30T01:35:24.334Z,5.03
2017-10-30T01:37:52.624Z,5.17
2017-10-30T01:40:20.879Z,6.37
2017-10-30T01:42:49.144Z,4.87
2017-10-30T01:45:17.407Z,5.37
2017-10-30T01:47:46.437Z,5.60
2017-10-30T01:50:14.697Z,4.63
2017-10-30T01:52:42.958Z,6.13
2017-10-30T01:55:11.220Z,7.72
2017-10-30T01:57:40.307Z,5.90
2017-10-30T02:00:08.564Z,5.25
2017-10-30T02:02:36.847Z,5.57
2017-10-30T02:05:05.117Z,5.57
2017-10-30T02:07:33.372Z,6.93
2017-10-30T02:10:01.619Z,6.50
2017-10-30T02:12:29.865Z,5.40
2017-10-30T02:14:58.888Z,6.40
2017-10-30T02:17:27.152Z,4.93
2017-10-30T02:19:55.400Z,7.53
2017-10-30T02:22:23.663Z,5.25
2017-10-30T02:24:51.918Z,6.60
2017-10-30T02:27:20.172Z,5.82
2017-10-30T02:29:48.416Z,5.90
2017-10-30T02:32:17.446Z,5.90
2017-10-30T02:34:45.697Z,6.57
2017-10-30T02:37:14.718Z,6.43
2017-10-30T02:39:42.959Z,6.10
2017-10-30T02:42:11.976Z,5.60
2017-10-30T02:44:40.225Z,6.37
2017-10-30T02:47:09.249Z,5.90
2017-10-30T02:49:37.488Z,4.60
2017-10-30T02:52:06.508Z,7.23
2017-10-30T02:54:34.757Z,5.90
2017-10-30T02:57:03.777Z,5.87
2017-10-30T02:59:32.021Z,6.27
2017-10-30T03:02:00.273Z,6.50
2017-10-30T03:04:28.539Z,7.73
2017-10-30T03:06:56.781Z,4.60
2017-10-30T03:09:25.045Z,7.87
2017-10-30T03:11:54.069Z,5.90
2017-10-30T03:14:22.309Z,7.10
2017-10-30T03:16:51.324Z,7.20
2017-10-30T03:19:19.591Z,6.60
2017-10-30T03:21:47.836Z,6.97
2017-10-30T03:24:16.082Z,7.67
2017-10-30T03:26:44.335Z,6.20
2017-10-30T03:29:12.602Z,7.97
2017-10-30T03:31:40.866Z,7.93
2017-10-30T03:34:09.163Z,7.37
2017-10-30T03:36:37.422Z,9.17
2017-10-30T03:39:05.710Z,6.17
2017-10-30T03:41:33.993Z,7.30
2017-10-30T03:44:02.269Z,9.47
2017-10-30T03:46:30.529Z,8.50
2017-10-30T03:48:58.815Z,8.50
2017-10-30T03:51:27.079Z,8.40
2017-10-30T03:53:55.381Z,7.45
2017-10-30T03:56:23.658Z,7.20
2017-10-30T03:58:51.942Z,6.87
2017-10-30T04:01:20.200Z,7.77
2017-10-30T04:03:48.483Z,7.47
2017-10-30T04:06:17.500Z,8.10
2017-10-30T04:08:45.790Z,7.87
2017-10-30T04:11:14.812Z,5.70
2017-10-30T04:13:43.072Z,8.00
2017-10-30T04:16:12.113Z,7.20
2017-10-30T04:18:40.409Z,7.43
2017-10-30T04:21:08.676Z,7.30
2017-10-30T04:23:36.944Z,6.20
2017-10-30T04:26:05.193Z,8.13
2017-10-30T04:28:33.460Z,7.77
2017-10-30T04:31:01.753Z,7.50
2017-10-30T04:33:30.044Z,7.50
2017-10-30T04:35:58.319Z,8.17
2017-10-30T04:38:26.590Z,8.43
2017-10-30T04:40:54.869Z,7.13
2017-10-30T04:43:23.153Z,7.23
2017-10-30T04:45:51.442Z,8.70
2017-10-30T04:48:19.704Z,8.53
2017-10-30T04:50:47.981Z,8.40
2017-10-30T04:53:16.266Z,8.93
2017-10-30T04:55:44.517Z,9.30
2017-10-30T04:58:12.798Z,7.60
2017-10-30T05:00:41.077Z,8.17
2017-10-30T05:03:09.393Z,8.53
2017-10-30T05:05:38.429Z,7.45
2017-10-30T05:08:06.719Z,8.88
2017-10-30T05:10:34.997Z,8.25
2017-10-30T05:13:03.275Z,8.00
2017-10-30T05:15:31.557Z,8.70
2017-10-30T05:17:59.839Z,8.03
2017-10-30T05:20:28.112Z,8.73
2017-10-30T05:22:56.396Z,8.27
2017-10-30T05:25:24.674Z,7.75
2017-10-30T05:27:52.960Z,8.10
2017-10-30T05:30:21.260Z,8.77
2017-10-30T05:32:50.303Z,7.68
2017-10-30T05:35:18.579Z,7.40
2017-10-30T05:37:46.885Z,8.30
2017-10-30T05:40:15.154Z,8.00
2017-10-30T05:42:43.437Z,9.03
2017-10-30T05:45:11.726Z,8.35
2017-10-30T05:47:40.761Z,9.67
2017-10-30T05:50:09.045Z,8.50
2017-10-30T05:52:37.314Z,8.77
2017-10-30T05:55:05.597Z,7.68
2017-10-30T05:57:33.875Z,11.27
2017-10-30T06:00:02.162Z,10.03
2017-10-30T06:02:30.435Z,11.30
2017-10-30T06:04:58.708Z,14.80
2017-10-30T06:07:26.970Z,10.48
2017-10-30T06:09:55.237Z,12.47
2017-10-30T06:12:23.533Z,9.80
2017-10-30T06:14:51.829Z,10.40
2017-10-30T06:17:20.085Z,10.17
2017-10-30T06:19:48.380Z,9.27
2017-10-30T06:22:16.627Z,8.70
2017-10-30T06:24:44.915Z,8.47
2017-10-30T06:27:13.177Z,8.43
2017-10-30T06:29:41.458Z,8.57
2017-10-30T06:32:09.721Z,9.00
2017-10-30T06:34:37.986Z,8.03
2017-10-30T06:37:06.261Z,8.17
2017-10-30T06:39:34.542Z,9.03
2017-10-30T06:42:02.814Z,8.97
2017-10-30T06:44:31.076Z,9.33
2017-10-30T06:47:00.104Z,9.60
2017-10-30T06:49:28.372Z,7.60
2017-10-30T06:51:56.624Z,9.07
2017-10-30T06:54:24.888Z,9.30
2017-10-30T06:56:53.157Z,9.60
2017-10-30T06:59:22.192Z,7.70
2017-10-30T07:01:50.457Z,7.23
2017-10-30T07:04:18.734Z,7.23
2017-10-30T07:06:46.995Z,7.90
2017-10-30T07:09:15.268Z,7.80
2017-10-30T07:11:44.332Z,8.00
2017-10-30T07:14:12.619Z,8.07
2017-10-30T07:16:40.902Z,6.67
2017-10-30T07:19:09.956Z,8.73
2017-10-30T07:21:38.239Z,7.33
2017-10-30T07:24:06.528Z,7.03
2017-10-30T07:26:34.796Z,7.63
2017-10-30T07:29:03.066Z,7.43
2017-10-30T07:31:31.320Z,8.03
2017-10-30T07:33:59.588Z,6.73
2017-10-30T07:36:27.842Z,6.07
2017-10-30T07:38:56.117Z,7.40
2017-10-30T07:41:25.141Z,7.57
2017-10-30T07:43:53.409Z,6.80
2017-10-30T07:46:21.672Z,6.67
2017-10-30T07:48:49.948Z,7.03
2017-10-30T07:51:18.213Z,7.50
2017-10-30T07:53:47.263Z,6.80
2017-10-30T07:56:15.541Z,6.27
2017-10-30T07:58:43.816Z,6.63
2017-10-30T08:01:12.093Z,6.03
2017-10-30T08:03:40.385Z,5.80
2017-10-30T08:06:08.660Z,6.47
2017-10-30T08:08:37.725Z,7.20
2017-10-30T08:11:06.022Z,6.40
2017-10-30T08:13:34.423Z,8.00
2017-10-30T08:16:03.460Z,6.53
2017-10-30T08:18:31.756Z,6.30
2017-10-30T08:21:00.035Z,7.10
2017-10-30T08:23:28.312Z,6.40
2017-10-30T08:25:56.573Z,4.83
2017-10-30T08:28:24.827Z,5.67
2017-10-30T08:30:53.109Z,5.40
2017-10-30T08:33:21.439Z,6.57
2017-10-30T08:35:49.698Z,5.77
2017-10-30T08:38:17.980Z,5.40
2017-10-30T08:40:46.257Z,5.80
2017-10-30T08:43:14.521Z,5.87
2017-10-30T08:45:42.819Z,4.93
2017-10-30T08:48:11.104Z,4.60
2017-10-30T08:50:40.156Z,5.60
2017-10-30T08:53:09.207Z,5.00
2017-10-30T08:55:38.246Z,5.73
2017-10-30T08:58:06.511Z,5.23
2017-10-30T09:00:34.794Z,4.90
2017-10-30T09:03:03.066Z,5.37
2017-10-30T09:05:31.356Z,4.90
2017-10-30T09:07:59.638Z,4.43
2017-10-30T09:10:27.941Z,6.03
2017-10-30T09:12:57.007Z,4.77
2017-10-30T09:15:25.325Z,4.13
2017-10-30T09:17:54.379Z,5.30
2017-10-30T09:20:22.709Z,4.57
2017-10-30T09:22:50.981Z,5.07
2017-10-30T09:25:19.271Z,5.70
2017-10-30T09:27:47.562Z,5.40
2017-10-30T09:30:15.848Z,3.60
2017-10-30T09:32:44.129Z,4.63
2017-10-30T09:35:12.407Z,4.43
2017-10-30T09:37:40.644Z,4.07
2017-10-30T09:40:08.912Z,3.40
2017-10-30T09:42:37.187Z,4.17
2017-10-30T09:45:05.442Z,4.30
2017-10-30T09:47:34.471Z,4.07
2017-10-30T09:50:02.705Z,4.80
2017-10-30T09:52:30.938Z,3.23
2017-10-30T09:54:59.187Z,4.50
2017-10-30T09:57:27.429Z,4.03
2017-10-30T09:59:55.671Z,4.53
2017-10-30T10:02:23.920Z,4.07
2017-10-30T10:04:52.163Z,5.07
2017-10-30T10:07:21.175Z,4.20
2017-10-30T10:09:49.434Z,4.30
2017-10-30T10:12:18.438Z,3.60
2017-10-30T10:14:46.691Z,4.63
2017-10-30T10:17:14.934Z,4.10
2017-10-30T10:19:43.188Z,3.77
2017-10-30T10:22:11.424Z,3.10
2017-10-30T10:24:40.433Z,3.60
2017-10-30T10:27:08.671Z,3.53
2017-10-30T10:29:36.923Z,3.93
2017-10-30T10:32:05.165Z,3.80
2017-10-30T10:34:33.418Z,4.47
2017-10-30T10:37:02.417Z,4.33
2017-10-30T10:39:31.437Z,4.10
2017-10-30T10:41:59.672Z,3.20
2017-10-30T10:44:28.686Z,3.73
2017-10-30T10:46:56.921Z,4.00
2017-10-30T10:49:25.173Z,3.77
2017-10-30T10:51:53.419Z,3.20
2017-10-30T10:54:21.663Z,4.73
2017-10-30T10:56:49.901Z,3.07
2017-10-30T10:59:18.138Z,2.90
2017-10-30T11:01:46.377Z,3.00
2017-10-30T11:04:14.626Z,3.20
2017-10-30T11:06:42.876Z,3.10
2017-10-30T11:09:11.148Z,2.97
2017-10-30T11:11:39.390Z,3.80
2017-10-30T11:14:07.635Z,3.00
2017-10-30T11:16:35.887Z,2.80
2017-10-30T11:19:04.120Z,3.20
2017-10-30T11:21:33.132Z,3.17
2017-10-30T11:24:02.171Z,3.40
2017-10-30T11:26:30.456Z,3.33
2017-10-30T11:28:58.725Z,2.43
2017-10-30T11:31:27.007Z,2.83
2017-10-30T11:33:55.303Z,3.50
2017-10-30T11:36:23.591Z,3.00
2017-10-30T11:38:51.852Z,3.20
2017-10-30T11:41:20.118Z,2.93
2017-10-30T11:43:49.176Z,3.50
2017-10-30T11:46:17.482Z,4.03
2017-10-30T11:48:46.529Z,3.00
2017-10-30T11:51:14.834Z,2.70
2017-10-30T11:53:43.113Z,3.43
2017-10-30T11:56:11.380Z,3.20
2017-10-30T11:58:39.663Z,3.33
2017-10-30T12:01:07.940Z,3.80
2017-10-30T12:03:36.209Z,2.83
2017-10-30T12:06:04.493Z,2.80
2017-10-30T12:08:32.782Z,3.17
2017-10-30T12:11:01.061Z,2.67
2017-10-30T12:13:29.354Z,3.40
2017-10-30T12:15:57.660Z,2.50
2017-10-30T12:18:26.694Z,3.10
2017-10-30T12:20:54.976Z,2.87
2017-10-30T12:23:23.226Z,2.60
2017-10-30T12:25:51.483Z,3.90
2017-10-30T12:28:19.725Z,3.97
2017-10-30T12:30:47.972Z,2.20
2017-10-30T12:33:16.208Z,2.43
2017-10-30T12:35:44.465Z,2.50
2017-10-30T12:38:13.479Z,3.40
2017-10-30T12:40:41.728Z,2.50
2017-10-30T12:43:09.986Z,2.93
2017-10-30T12:45:38.247Z,2.30
2017-10-30T12:48:06.498Z,2.40
2017-10-30T12:50:34.771Z,2.83
2017-10-30T12:53:03.025Z,2.70
2017-10-30T12:55:31.362Z,2.57
2017-10-30T12:57:59.642Z,2.30
2017-10-30T13:00:28.044Z,2.93
2017-10-30T13:02:57.121Z,2.57
2017-10-30T13:05:25.409Z,2.53
2017-10-30T13:07:54.442Z,2.27
2017-10-30T13:10:22.729Z,2.97
2017-10-30T13:12:50.989Z,2.40
2017-10-30T13:15:19.260Z,2.83
2017-10-30T13:17:47.544Z,3.00
2017-10-30T13:20:15.838Z,2.70
2017-10-30T13:22:44.120Z,2.60
2017-10-30T13:25:12.404Z,3.90
2017-10-30T13:27:40.691Z,2.57
2017-10-30T13:30:08.994Z,3.70
2017-10-30T13:32:38.041Z,4.03
2017-10-30T13:35:06.305Z,2.13
2017-10-30T13:37:34.567Z,2.70
2017-10-30T13:40:02.843Z,2.40
2017-10-30T13:42:31.097Z,1.83
2017-10-30T13:45:00.117Z,2.43
2017-10-30T13:47:28.353Z,2.30
2017-10-30T13:49:57.374Z,2.10
2017-10-30T13:52:25.642Z,1.70
2017-10-30T13:54:53.886Z,1.63
2017-10-30T13:57:22.906Z,2.00
2017-10-30T13:59:51.169Z,2.67
2017-10-30T14:02:20.183Z,2.90
2017-10-30T14:04:48.721Z,2.30
2017-10-30T14:07:17.028Z,2.20
2017-10-30T14:09:46.097Z,2.77
2017-10-30T14:12:14.394Z,2.30
2017-10-30T14:14:43.473Z,2.30
2017-10-30T14:17:12.536Z,2.40
2017-10-30T14:19:40.780Z,1.87
2017-10-30T14:22:09.083Z,2.33
2017-10-30T14:24:37.365Z,1.97
2017-10-30T14:27:06.409Z,2.37
2017-10-30T14:29:35.480Z,2.50
2017-10-30T14:32:04.567Z,2.10
2017-10-30T14:34:32.880Z,2.00
2017-10-30T14:37:01.207Z,2.43
2017-10-30T14:39:29.502Z,2.20
2017-10-30T14:41:57.817Z,2.10
2017-10-30T14:44:26.131Z,2.87
2017-10-30T14:46:54.439Z,2.67
2017-10-30T14:49:22.735Z,2.40
2017-10-30T14:51:51.779Z,3.50
2017-10-30T14:54:20.057Z,2.90
2017-10-30T14:56:49.072Z,2.13
2017-10-30T14:59:17.316Z,2.30
2017-10-30T15:01:45.557Z,2.97
2017-10-30T15:04:13.807Z,2.87
2017-10-30T15:06:42.822Z,3.03
2017-10-30T15:09:12.879Z,3.33
2017-10-30T15:11:41.198Z,2.77
2017-10-30T15:14:10.250Z,3.53
2017-10-30T15:16:38.580Z,3.30
2017-10-30T15:19:07.632Z,2.63
2017-10-30T15:21:35.945Z,2.97
2017-10-30T15:24:04.956Z,3.50
2017-10-30T15:26:33.273Z,2.90
2017-10-30T15:29:01.563Z,4.20
2017-10-30T15:31:29.854Z,3.00
2017-10-30T15:33:58.109Z,3.00
2017-10-30T15:36:27.125Z,3.53
2017-10-30T15:38:55.519Z,3.10
2017-10-30T15:41:24.646Z,2.40
2017-10-30T15:43:52.940Z,3.30
2017-10-30T15:46:21.264Z,3.90
2017-10-30T15:48:50.336Z,3.17
2017-10-30T15:51:18.622Z,3.23
2017-10-30T15:53:46.946Z,3.50
2017-10-30T15:56:15.258Z,2.37
2017-10-30T15:58:43.546Z,3.33
2017-10-30T16:01:11.880Z,3.40
2017-10-30T16:03:40.250Z,3.07
2017-10-30T16:06:09.300Z,2.60
2017-10-30T16:08:38.387Z,3.47
2017-10-30T16:11:06.702Z,3.40
2017-10-30T16:13:35.044Z,3.07
2017-10-30T16:16:03.376Z,2.93
2017-10-30T16:18:31.662Z,3.93
2017-10-30T16:20:59.975Z,3.07
2017-10-30T16:23:29.039Z,3.40
2017-10-30T16:25:57.337Z,2.70
2017-10-30T16:28:25.634Z,3.50
2017-10-30T16:30:54.697Z,3.20
2017-10-30T16:33:22.971Z,4.07
2017-10-30T16:35:51.271Z,3.20
2017-10-30T16:38:19.547Z,2.70
2017-10-30T16:40:47.869Z,3.43
2017-10-30T16:43:16.170Z,3.63
2017-10-30T16:45:44.482Z,3.63
2017-10-30T16:48:12.739Z,3.17
2017-10-30T16:50:41.017Z,2.57
2017-10-30T16:53:09.267Z,4.20
2017-10-30T16:55:37.505Z,3.37
2017-10-30T16:58:05.768Z,3.50
2017-10-30T17:00:34.033Z,3.40
2017-10-30T17:03:02.292Z,3.87
2017-10-30T17:05:30.547Z,3.10
2017-10-30T17:07:58.823Z,3.83
2017-10-30T17:10:27.052Z,3.87
2017-10-30T17:12:56.083Z,3.50
2017-10-30T17:15:24.324Z,3.70
2017-10-30T17:17:53.335Z,4.07
2017-10-30T17:20:21.588Z,6.47
2017-10-30T17:22:50.606Z,6.10
2017-10-30T17:25:18.846Z,5.23
2017-10-30T17:27:47.855Z,5.50
2017-10-30T17:30:16.107Z,5.73
2017-10-30T17:32:44.357Z,6.50
2017-10-30T17:35:12.591Z,6.93
2017-10-30T17:37:40.866Z,6.70
2017-10-30T17:40:09.875Z,7.23
2017-10-30T17:42:38.159Z,5.97
2017-10-30T17:45:07.538Z,5.33
2017-10-30T17:47:35.791Z,7.00
2017-10-30T17:50:04.805Z,4.97
2017-10-30T17:52:33.062Z,5.73
2017-10-30T17:55:02.094Z,4.63
2017-10-30T17:57:30.371Z,5.80
2017-10-30T17:59:58.634Z,4.37
2017-10-30T18:02:26.890Z,5.10
2017-10-30T18:04:55.920Z,4.97
2017-10-30T18:07:24.212Z,4.97
2017-10-30T18:09:52.462Z,3.77
2017-10-30T18:12:20.724Z,4.43
2017-10-30T18:14:48.969Z,3.97
2017-10-30T18:17:17.223Z,3.83
2017-10-30T18:19:45.512Z,5.90
2017-10-30T18:22:19.223Z,4.40
2017-10-30T18:24:48.272Z,4.00
2017-10-30T18:27:16.556Z,4.80
2017-10-30T18:29:44.902Z,4.63
2017-10-30T18:32:13.231Z,4.60
2017-10-30T18:34:41.541Z,5.07
2017-10-30T18:37:10.620Z,6.60
2017-10-30T18:39:39.721Z,4.57
2017-10-30T18:42:08.863Z,5.40
2017-10-30T18:44:37.195Z,4.50
2017-10-30T18:47:06.270Z,4.57
2017-10-30T18:49:34.582Z,5.20
2017-10-30T18:52:02.890Z,4.70
2017-10-30T18:54:31.161Z,4.40
2017-10-30T18:56:59.436Z,5.90
2017-10-30T18:59:27.722Z,5.30
2017-10-30T19:01:56.066Z,5.00
2017-10-30T19:04:24.383Z,5.50
2017-10-30T19:06:53.479Z,4.60
2017-10-30T19:09:21.803Z,5.50
2017-10-30T19:11:50.863Z,5.83
2017-10-30T19:14:19.206Z,5.10
2017-10-30T19:16:47.536Z,4.80
2017-10-30T19:19:15.852Z,5.03
2017-10-30T19:21:44.187Z,5.67
2017-10-30T19:24:12.481Z,5.40
2017-10-30T19:26:41.658Z,4.80
2017-10-30T19:29:09.970Z,6.50
2017-10-30T19:31:38.264Z,4.80
2017-10-30T19:34:06.575Z,5.20
2017-10-30T19:36:34.904Z,5.10
2017-10-30T19:39:03.230Z,5.10
2017-10-30T19:41:31.551Z,4.77
2017-10-30T19:43:59.864Z,6.07
2017-10-30T19:46:28.178Z,5.77
2017-10-30T19:48:57.260Z,5.23
2017-10-30T19:51:25.579Z,5.77
2017-10-30T19:53:54.616Z,5.70
2017-10-30T19:56:22.928Z,4.63
2017-10-30T19:58:52.062Z,5.63
2017-10-30T20:01:20.422Z,6.20
2017-10-30T20:03:48.783Z,6.13
2017-10-30T20:06:23.348Z,6.03
2017-10-30T20:08:57.212Z,5.47
2017-10-30T20:11:31.660Z,6.07
2017-10-30T20:14:00.044Z,7.03
2017-10-30T20:16:28.287Z,5.90
2017-10-30T20:18:57.297Z,7.40
2017-10-30T20:21:25.548Z,6.27
2017-10-30T20:23:54.568Z,5.60
2017-10-30T20:26:24.107Z,6.10
2017-10-30T20:28:53.184Z,5.97
2017-10-30T20:31:21.523Z,6.07
2017-10-30T20:33:49.848Z,6.90
2017-10-30T20:36:18.100Z,5.70
2017-10-30T20:38:46.370Z,6.30
2017-10-30T20:41:14.726Z,6.37
2017-10-30T20:43:43.805Z,6.37
2017-10-30T20:46:12.106Z,5.40
2017-10-30T20:48:41.154Z,5.63
2017-10-30T20:51:09.428Z,5.03
2017-10-30T20:53:37.755Z,6.43
2017-10-30T20:56:06.059Z,5.93
2017-10-30T20:58:34.543Z,6.17
2017-10-30T21:01:02.827Z,6.43
2017-10-30T21:03:31.078Z,6.07
2017-10-30T21:05:59.336Z,5.33
2017-10-30T21:08:28.334Z,6.13
2017-10-30T21:10:57.345Z,7.00
2017-10-30T21:13:25.589Z,6.07
2017-10-30T21:15:54.751Z,6.53
2017-10-30T21:18:22.988Z,5.90
2017-10-30T21:20:51.222Z,6.87
2017-10-30T21:23:21.076Z,6.30
2017-10-30T21:25:49.315Z,6.40
2017-10-30T21:28:17.569Z,8.17
2017-10-30T21:30:45.823Z,8.23
2017-10-30T21:33:14.068Z,7.40
2017-10-30T21:35:43.078Z,6.50
2017-10-30T21:38:19.601Z,5.97
2017-10-30T21:40:48.634Z,5.90
2017-10-30T21:43:16.899Z,5.90
2017-10-30T21:45:45.924Z,6.30
2017-10-30T21:48:14.188Z,6.50
2017-10-30T21:50:42.445Z,6.50
2017-10-30T21:53:11.472Z,6.33
2017-10-30T21:55:39.778Z,7.37
2017-10-30T21:58:08.042Z,5.90
2017-10-30T22:00:36.303Z,8.43
2017-10-30T22:03:04.606Z,7.33
2017-10-30T22:05:32.866Z,6.47
2017-10-30T22:08:01.133Z,7.07
2017-10-30T22:10:30.166Z,7.10
2017-10-30T22:12:58.444Z,6.23
2017-10-30T22:15:27.471Z,6.27
2017-10-30T22:18:10.619Z,5.60
2017-10-30T22:20:38.890Z,7.83
2017-10-30T22:23:07.160Z,7.53
2017-10-30T22:25:35.424Z,7.13
2017-10-30T22:28:03.774Z,6.60
2017-10-30T22:30:32.055Z,6.90
2017-10-30T22:33:00.348Z,7.00
2017-10-30T22:35:28.627Z,7.17
2017-10-30T22:37:56.906Z,7.27
2017-10-30T22:40:25.215Z,6.77
2017-10-30T22:42:53.520Z,8.20
2017-10-30T22:45:21.774Z,10.07
2017-10-30T22:47:50.069Z,8.50
2017-10-30T22:50:18.328Z,8.23
2017-10-30T22:52:46.595Z,6.70
2017-10-30T22:55:15.632Z,6.97
2017-10-30T22:57:44.696Z,7.30
2017-10-30T23:00:13.761Z,7.07
2017-10-30T23:02:42.103Z,6.53
2017-10-30T23:05:10.400Z,7.00
2017-10-30T23:07:38.682Z,7.80
2017-10-30T23:10:06.957Z,7.70
2017-10-30T23:12:35.304Z,7.87
2017-10-30T23:15:04.356Z,7.60
2017-10-30T23:17:32.632Z,8.57
2017-10-30T23:20:00.932Z,8.10
2017-10-30T23:22:29.235Z,7.07
2017-10-30T23:24:57.521Z,7.10
2017-10-30T23:27:25.805Z,7.10
2017-10-30T23:29:54.085Z,7.63
2017-10-30T23:32:22.452Z,8.43
2017-10-30T23:34:50.834Z,5.97
2017-10-30T23:37:19.105Z,7.93
2017-10-30T23:39:47.390Z,6.10
2017-10-30T23:42:15.679Z,6.77
2017-10-30T23:44:43.985Z,7.27
2017-10-30T23:47:12.260Z,6.70
2017-10-30T23:49:40.611Z,7.77
2017-10-30T23:52:08.869Z,7.33
2017-10-30T23:54:37.160Z,7.57
2017-10-30T23:57:05.436Z,7.70
2017-10-30T23:59:33.708Z,7.33
